KAIK/AIK METAR and TAF weather

Enter ICAO airport designator
Station Type Date Time Source
KAIK METAR 2019/04/21 22:15 UTC NOAA

KAIK 212215Z AUTO 30005KT 10SM CLR 18/06 A3011 RMK AO2


Station Type Date Time Source
KAIK Decoded METAR 2019/04/21 22:15 UTC NOAA

Station name not available
Apr 21, 2019 - 06:15 PM EDT / 2019.04.21 2215 UTC
Wind: from the WNW (300 degrees) at 6 MPH (5 KT):0
Visibility: 10 mile(s):0
Sky conditions: clear
Temperature: 64 F (18 C)
Dew Point: 42 F (6 C)
Relative Humidity: 45%
Pressure (altimeter): 30.11 in. Hg (1019 hPa)
ob: KAIK 212215Z AUTO 30005KT 10SM CLR 18/06 A3011 RMK AO2
cycle: 22

Station Type Date Time Source
KAIK TAF UTC NOAA

Error!

Example: see airport list